createdAt,value
2018-12-18T00:00:23.440Z,5.40
2018-12-18T00:02:51.399Z,5.43
2018-12-18T00:05:25.042Z,5.48
2018-12-18T00:07:52.750Z,5.50
2018-12-18T00:10:20.243Z,5.58
2018-12-18T00:12:47.928Z,5.64
2018-12-18T00:15:15.668Z,5.67
2018-12-18T00:17:44.280Z,5.71
2018-12-18T00:20:12.166Z,5.78
2018-12-18T00:22:40.459Z,5.79
2018-12-18T00:25:08.647Z,5.78
2018-12-18T00:27:36.412Z,5.84
2018-12-18T00:30:05.350Z,5.89
2018-12-18T00:32:32.965Z,5.87
2018-12-18T00:35:00.508Z,5.87
2018-12-18T00:37:28.120Z,5.86
2018-12-18T00:39:55.720Z,5.90
2018-12-18T00:42:23.258Z,5.86
2018-12-18T00:44:50.919Z,5.91
2018-12-18T00:47:18.529Z,5.92
2018-12-18T00:49:46.242Z,5.91
2018-12-18T00:52:13.768Z,5.98
2018-12-18T00:54:41.277Z,6.01
2018-12-18T00:57:08.810Z,5.99
2018-12-18T00:59:36.329Z,6.04
2018-12-18T01:02:03.969Z,6.03
2018-12-18T01:04:32.350Z,6.06
2018-12-18T01:06:59.972Z,6.05
2018-12-18T01:09:27.548Z,6.04
2018-12-18T01:11:55.087Z,6.01
2018-12-18T01:14:22.589Z,6.00
2018-12-18T01:16:50.916Z,5.91
2018-12-18T01:19:18.675Z,5.85
2018-12-18T01:21:47.068Z,5.75
2018-12-18T01:24:14.788Z,5.64
2018-12-18T01:26:42.366Z,5.51
2018-12-18T01:29:10.733Z,5.41
2018-12-18T01:31:38.565Z,5.28
2018-12-18T01:34:06.546Z,5.20
2018-12-18T01:36:34.152Z,5.07
2018-12-18T01:39:02.186Z,5.08
2018-12-18T01:41:30.562Z,4.94
2018-12-18T01:43:58.654Z,4.88
2018-12-18T01:46:27.244Z,4.80
2018-12-18T01:48:54.807Z,4.74
2018-12-18T01:51:22.459Z,4.65
2018-12-18T01:53:49.971Z,4.64
2018-12-18T01:56:17.539Z,4.57
2018-12-18T01:58:45.064Z,4.57
2018-12-18T02:01:12.619Z,4.61
2018-12-18T02:03:40.193Z,4.64
2018-12-18T02:06:08.023Z,4.69
2018-12-18T02:08:36.693Z,4.69
2018-12-18T02:11:04.258Z,4.64
2018-12-18T02:13:31.887Z,4.63
2018-12-18T02:15:59.440Z,4.58
2018-12-18T02:18:26.967Z,4.45
2018-12-18T02:20:54.548Z,4.41
2018-12-18T02:23:22.414Z,4.35
2018-12-18T02:25:49.967Z,4.30
2018-12-18T02:28:17.575Z,4.25
2018-12-18T02:30:45.165Z,4.20
2018-12-18T02:33:12.738Z,4.13
2018-12-18T02:35:40.321Z,4.11
2018-12-18T02:38:07.989Z,4.03
2018-12-18T02:40:35.600Z,3.97
2018-12-18T02:43:03.516Z,4.00
2018-12-18T02:45:31.045Z,3.98
2018-12-18T02:47:58.673Z,4.04
2018-12-18T02:50:26.363Z,4.08
2018-12-18T02:52:54.087Z,4.12
2018-12-18T02:55:21.845Z,4.18
2018-12-18T02:57:49.574Z,4.23
2018-12-18T03:00:17.242Z,4.29
2018-12-18T03:02:44.808Z,4.36
2018-12-18T03:05:12.336Z,4.44
2018-12-18T03:07:39.916Z,4.40
2018-12-18T03:10:13.662Z,4.42
2018-12-18T03:12:41.160Z,4.48
2018-12-18T03:15:08.898Z,4.49
2018-12-18T03:17:36.519Z,4.50
2018-12-18T03:20:04.334Z,4.48
2018-12-18T03:22:32.521Z,4.43
2018-12-18T03:25:00.110Z,4.41
2018-12-18T03:27:28.126Z,4.28
2018-12-18T03:29:57.704Z,4.23
2018-12-18T03:32:30.099Z,4.18
2018-12-18T03:34:58.109Z,4.09
2018-12-18T03:37:26.372Z,4.00
2018-12-18T03:39:54.696Z,3.93
2018-12-18T03:42:22.755Z,3.88
2018-12-18T03:44:50.801Z,3.89
2018-12-18T03:47:18.548Z,3.85
2018-12-18T03:49:46.225Z,3.81
2018-12-18T03:52:14.256Z,3.76
2018-12-18T03:54:42.523Z,3.72
2018-12-18T03:57:10.649Z,3.64
2018-12-18T03:59:38.642Z,3.63
2018-12-18T04:02:06.468Z,3.61
2018-12-18T04:04:35.939Z,3.57
2018-12-18T04:07:04.056Z,3.53
2018-12-18T04:09:32.920Z,3.45
2018-12-18T04:12:05.968Z,3.40
2018-12-18T04:14:33.979Z,3.38
2018-12-18T04:17:02.895Z,3.31
2018-12-18T04:19:30.718Z,3.30
2018-12-18T04:21:58.537Z,3.25
2018-12-18T04:24:26.415Z,3.30
2018-12-18T04:26:54.056Z,3.36
2018-12-18T04:29:21.593Z,3.41
2018-12-18T04:31:49.318Z,3.55
2018-12-18T04:34:16.867Z,3.59
2018-12-18T04:36:44.948Z,3.62
2018-12-18T04:39:12.527Z,3.74
2018-12-18T04:41:40.116Z,3.71
2018-12-18T04:44:07.622Z,3.74
2018-12-18T04:46:35.299Z,3.72
2018-12-18T04:49:03.619Z,3.69
2018-12-18T04:51:31.261Z,3.60
2018-12-18T04:53:58.786Z,3.55
2018-12-18T04:56:26.322Z,3.43
2018-12-18T04:58:54.056Z,3.28
2018-12-18T05:01:21.668Z,3.23
2018-12-18T05:03:49.205Z,3.11
2018-12-18T05:06:16.787Z,2.99
2018-12-18T05:08:44.325Z,2.89
2018-12-18T05:11:11.977Z,2.82
2018-12-18T05:13:39.584Z,2.76
2018-12-18T05:16:07.205Z,2.76
2018-12-18T05:21:08.736Z,2.62
2018-12-18T05:23:36.337Z,2.58
2018-12-18T05:26:04.128Z,2.53
2018-12-18T05:28:31.687Z,2.53
2018-12-18T05:30:59.283Z,2.52
2018-12-18T05:33:26.901Z,2.46
2018-12-18T05:35:54.463Z,2.47
2018-12-18T05:38:22.135Z,2.47
2018-12-18T05:40:49.665Z,2.46
2018-12-18T05:43:17.262Z,2.37
2018-12-18T05:45:44.802Z,2.38
2018-12-18T05:48:12.336Z,2.38
2018-12-18T05:50:39.934Z,2.35
2018-12-18T05:53:07.596Z,2.31
2018-12-18T05:55:35.146Z,2.31
2018-12-18T05:58:02.720Z,2.21
2018-12-18T06:00:30.383Z,2.23
2018-12-18T06:02:57.997Z,2.22
2018-12-18T06:05:25.648Z,2.18
2018-12-18T06:07:53.277Z,2.16
2018-12-18T06:10:20.949Z,2.13
2018-12-18T06:12:48.497Z,2.07
2018-12-18T06:15:16.177Z,2.04
2018-12-18T06:17:44.072Z,1.95
2018-12-18T06:20:11.752Z,1.97
2018-12-18T06:22:39.405Z,1.91
2018-12-18T06:25:08.202Z,1.91
2018-12-18T06:27:36.210Z,1.86
2018-12-18T06:30:04.066Z,1.92
2018-12-18T06:32:31.672Z,1.83
2018-12-18T06:34:59.455Z,1.88
2018-12-18T06:37:27.867Z,1.87
2018-12-18T06:39:55.660Z,1.84
2018-12-18T06:42:23.342Z,1.81
2018-12-18T06:44:51.165Z,1.79
2018-12-18T06:47:18.922Z,1.75
2018-12-18T06:49:47.092Z,1.73
2018-12-18T06:52:14.880Z,1.71
2018-12-18T06:54:43.044Z,1.72
2018-12-18T06:57:10.976Z,1.71
2018-12-18T06:59:38.530Z,1.68
2018-12-18T07:02:06.231Z,1.61
2018-12-18T07:04:33.946Z,1.65
2018-12-18T07:07:01.825Z,1.58
2018-12-18T07:09:29.324Z,1.60
2018-12-18T07:11:56.902Z,1.59
2018-12-18T07:14:24.575Z,1.53
2018-12-18T07:16:52.496Z,1.49
2018-12-18T07:19:21.325Z,1.50
2018-12-18T07:21:48.904Z,1.50
2018-12-18T07:24:16.735Z,1.46
2018-12-18T07:26:44.433Z,1.43
2018-12-18T07:29:11.989Z,1.45
2018-12-18T07:31:39.578Z,1.42
2018-12-18T07:34:07.225Z,1.44
2018-12-18T07:36:34.816Z,1.43
2018-12-18T07:39:02.661Z,1.47
2018-12-18T07:41:30.181Z,1.44
2018-12-18T07:43:57.769Z,1.38
2018-12-18T07:46:25.348Z,1.46
2018-12-18T07:48:53.186Z,1.46
2018-12-18T07:51:20.863Z,1.45
2018-12-18T07:53:49.114Z,1.47
2018-12-18T07:56:16.805Z,1.47
2018-12-18T07:58:44.364Z,1.54
2018-12-18T08:01:12.135Z,1.59
2018-12-18T08:03:39.847Z,1.64
2018-12-18T08:06:07.431Z,1.72
2018-12-18T08:08:35.044Z,1.80
2018-12-18T08:11:02.562Z,1.83
2018-12-18T08:13:30.128Z,1.86
2018-12-18T08:15:57.719Z,1.95
2018-12-18T08:18:25.248Z,2.00
2018-12-18T08:20:52.848Z,2.03
2018-12-18T08:23:20.632Z,2.07
2018-12-18T08:25:48.387Z,2.18
2018-12-18T08:28:16.136Z,2.19
2018-12-18T08:30:43.809Z,2.27
2018-12-18T08:33:11.571Z,2.31
2018-12-18T08:35:39.215Z,2.36
2018-12-18T08:38:06.767Z,2.41
2018-12-18T08:40:34.374Z,2.48
2018-12-18T08:43:02.079Z,2.49
2018-12-18T08:45:29.570Z,2.56
2018-12-18T08:47:57.105Z,2.51
2018-12-18T08:50:24.661Z,2.48
2018-12-18T08:52:52.238Z,2.55
2018-12-18T08:55:20.031Z,2.64
2018-12-18T08:57:47.673Z,2.68
2018-12-18T09:00:15.325Z,2.83
2018-12-18T09:02:42.906Z,2.93
2018-12-18T09:05:10.597Z,3.04
2018-12-18T09:07:38.613Z,3.10
2018-12-18T09:10:07.356Z,3.15
2018-12-18T09:12:35.248Z,3.21
2018-12-18T09:15:07.201Z,3.30
2018-12-18T09:17:40.086Z,3.35
2018-12-18T09:20:07.845Z,3.43
2018-12-18T09:22:35.367Z,3.50
2018-12-18T09:25:03.261Z,3.58
2018-12-18T09:27:30.984Z,3.59
2018-12-18T09:29:58.873Z,3.56
2018-12-18T09:32:26.651Z,3.59
2018-12-18T09:34:54.260Z,3.64
2018-12-18T09:37:21.802Z,3.68
2018-12-18T09:39:49.470Z,3.80
2018-12-18T09:42:22.632Z,3.82
2018-12-18T09:44:50.336Z,3.89
2018-12-18T09:47:18.010Z,4.00
2018-12-18T09:49:45.698Z,4.07
2018-12-18T09:52:13.494Z,4.15
2018-12-18T09:54:41.475Z,4.24
2018-12-18T09:57:13.306Z,4.26
2018-12-18T09:59:40.843Z,4.34
2018-12-18T10:02:08.519Z,4.37
2018-12-18T10:04:36.329Z,4.47
2018-12-18T10:07:03.906Z,4.44
2018-12-18T10:09:31.473Z,4.50
2018-12-18T10:11:59.147Z,4.54
2018-12-18T10:14:26.787Z,4.55
2018-12-18T10:16:54.305Z,4.54
2018-12-18T10:19:21.793Z,4.57
2018-12-18T10:21:49.382Z,4.68
2018-12-18T10:24:16.936Z,4.73
2018-12-18T10:26:44.497Z,4.80
2018-12-18T10:29:12.110Z,4.83
2018-12-18T10:31:39.668Z,4.97
2018-12-18T10:34:07.274Z,5.06
2018-12-18T10:36:34.873Z,5.17
2018-12-18T10:39:02.404Z,5.31
2018-12-18T10:41:29.969Z,5.40
2018-12-18T10:43:57.751Z,5.44
2018-12-18T10:46:25.351Z,5.51
2018-12-18T10:48:53.060Z,5.60
2018-12-18T10:51:22.314Z,5.62
2018-12-18T10:53:50.273Z,5.66
2018-12-18T10:56:17.823Z,5.59
2018-12-18T10:58:45.521Z,5.67
2018-12-18T11:01:16.588Z,5.81
2018-12-18T11:03:44.767Z,5.89
2018-12-18T11:06:12.373Z,5.95
2018-12-18T11:08:40.062Z,6.01
2018-12-18T11:11:07.732Z,6.15
2018-12-18T11:13:35.366Z,6.12
2018-12-18T11:16:07.827Z,6.24
2018-12-18T11:18:35.865Z,6.23
2018-12-18T11:21:03.674Z,6.37
2018-12-18T11:23:31.304Z,6.39
2018-12-18T11:26:05.696Z,6.49
2018-12-18T11:28:33.350Z,6.62
2018-12-18T11:31:01.192Z,6.72
2018-12-18T11:33:28.781Z,6.88
2018-12-18T11:35:56.405Z,6.98
2018-12-18T11:38:23.931Z,7.08
2018-12-18T11:40:51.511Z,7.25
2018-12-18T11:43:19.655Z,7.32
2018-12-18T11:45:47.285Z,7.47
2018-12-18T11:48:14.924Z,7.62
2018-12-18T11:50:43.154Z,7.84
2018-12-18T11:53:10.801Z,8.04
2018-12-18T11:55:38.547Z,8.30
2018-12-18T11:58:06.245Z,8.72
2018-12-18T12:00:34.281Z,9.00
2018-12-18T12:03:01.845Z,9.15
2018-12-18T12:05:29.448Z,9.39
2018-12-18T12:07:57.155Z,9.80
2018-12-18T12:10:24.791Z,10.36
2018-12-18T12:12:52.349Z,10.71
2018-12-18T12:15:19.931Z,10.82
2018-12-18T12:17:47.621Z,11.13
2018-12-18T12:20:18.922Z,11.42
2018-12-18T12:22:46.639Z,11.80
2018-12-18T12:25:14.181Z,12.64
2018-12-18T12:27:47.184Z,12.92
2018-12-18T12:30:14.912Z,13.31
2018-12-18T12:32:43.500Z,13.92
2018-12-18T12:35:11.195Z,14.51
2018-12-18T12:37:40.815Z,15.58
2018-12-18T12:40:08.486Z,16.19
2018-12-18T12:42:36.151Z,16.01
2018-12-18T12:45:04.046Z,16.49
2018-12-18T12:47:31.641Z,16.56
2018-12-18T12:49:59.166Z,16.90
2018-12-18T12:52:26.864Z,16.81
2018-12-18T12:54:54.470Z,16.16
2018-12-18T12:57:22.035Z,15.58
2018-12-18T12:59:49.693Z,15.46
2018-12-18T13:02:17.227Z,15.60
2018-12-18T13:04:44.779Z,15.62
2018-12-18T13:07:12.374Z,15.55
2018-12-18T13:09:39.994Z,14.90
2018-12-18T13:12:07.771Z,14.83
2018-12-18T13:14:35.309Z,15.10
2018-12-18T13:17:07.479Z,14.52
2018-12-18T13:19:35.054Z,14.40
2018-12-18T13:22:02.705Z,13.94
2018-12-18T13:24:30.789Z,13.75
2018-12-18T13:26:59.051Z,13.51
2018-12-18T13:29:26.932Z,13.51
2018-12-18T13:31:54.653Z,13.49
2018-12-18T13:34:22.232Z,13.87
2018-12-18T13:36:49.774Z,14.17
2018-12-18T13:39:17.557Z,13.98
2018-12-18T13:41:45.289Z,14.47
2018-12-18T13:44:13.482Z,14.78
2018-12-18T13:46:41.101Z,14.88
2018-12-18T13:49:08.622Z,14.99
2018-12-18T13:51:36.301Z,15.13
2018-12-18T13:54:04.211Z,15.41
2018-12-18T13:56:32.036Z,15.22
2018-12-18T13:59:00.391Z,15.07
2018-12-18T14:01:28.250Z,14.70
2018-12-18T14:03:56.076Z,14.42
2018-12-18T14:06:23.805Z,14.15
2018-12-18T14:08:51.581Z,13.96
2018-12-18T14:11:19.203Z,13.74
2018-12-18T14:13:46.870Z,13.63
2018-12-18T14:16:14.619Z,13.55
2018-12-18T14:18:42.194Z,13.33
2018-12-18T14:21:09.797Z,13.20
2018-12-18T14:23:37.339Z,13.37
2018-12-18T14:26:05.169Z,13.32
2018-12-18T14:28:32.677Z,13.49
2018-12-18T14:31:00.357Z,13.28
2018-12-18T14:33:27.957Z,13.19
2018-12-18T14:35:55.492Z,13.18
2018-12-18T14:38:23.000Z,12.55
2018-12-18T14:40:50.817Z,11.63
2018-12-18T14:43:18.428Z,10.98
2018-12-18T14:45:46.618Z,10.45
2018-12-18T14:48:14.155Z,9.88
2018-12-18T14:50:41.705Z,9.37
2018-12-18T14:53:09.212Z,8.95
2018-12-18T14:55:36.778Z,8.85
2018-12-18T14:58:04.540Z,8.44
2018-12-18T15:00:32.103Z,8.17
2018-12-18T15:02:59.726Z,7.83
2018-12-18T15:05:27.325Z,7.70
2018-12-18T15:07:55.008Z,7.49
2018-12-18T15:10:22.724Z,7.23
2018-12-18T15:12:51.006Z,6.92
2018-12-18T15:15:18.862Z,6.83
2018-12-18T15:17:46.581Z,6.63
2018-12-18T15:20:14.130Z,6.45
2018-12-18T15:22:41.873Z,6.24
2018-12-18T15:25:09.469Z,6.09
2018-12-18T15:27:37.057Z,6.00
2018-12-18T15:30:05.330Z,5.87
2018-12-18T15:32:32.887Z,5.70
2018-12-18T15:35:00.412Z,5.60
2018-12-18T15:37:28.006Z,5.46
2018-12-18T15:39:57.179Z,5.37
2018-12-18T15:42:25.114Z,5.29
2018-12-18T15:44:53.897Z,5.22
2018-12-18T15:47:21.488Z,5.11
2018-12-18T15:49:49.025Z,5.05
2018-12-18T15:52:16.735Z,4.95
2018-12-18T15:54:44.268Z,4.87
2018-12-18T15:57:12.006Z,4.79
2018-12-18T15:59:39.567Z,4.73
2018-12-18T16:02:07.181Z,4.70
2018-12-18T16:04:34.810Z,4.57
2018-12-18T16:07:02.547Z,4.52
2018-12-18T16:09:30.334Z,4.47
2018-12-18T16:11:58.003Z,4.42
2018-12-18T16:14:25.834Z,4.40
2018-12-18T16:16:53.445Z,4.38
2018-12-18T16:19:21.257Z,4.32
2018-12-18T16:21:48.901Z,4.30
2018-12-18T16:24:16.492Z,4.26
2018-12-18T16:26:44.073Z,4.26
2018-12-18T16:29:11.617Z,4.23
2018-12-18T16:31:39.133Z,4.17
2018-12-18T16:34:06.671Z,4.16
2018-12-18T16:36:34.351Z,4.12
2018-12-18T16:39:01.937Z,4.12
2018-12-18T16:41:29.589Z,4.04
2018-12-18T16:43:57.247Z,4.02
2018-12-18T16:46:24.811Z,3.94
2018-12-18T16:48:52.446Z,3.99
2018-12-18T16:51:20.672Z,3.92
2018-12-18T16:53:48.313Z,3.89
2018-12-18T16:56:15.951Z,3.86
2018-12-18T16:58:43.551Z,3.84
2018-12-18T17:01:11.360Z,3.81
2018-12-18T17:03:38.902Z,3.75
2018-12-18T17:06:06.535Z,3.63
2018-12-18T17:08:34.141Z,3.63
2018-12-18T17:11:01.791Z,3.59
2018-12-18T17:13:30.011Z,3.59
2018-12-18T17:15:57.605Z,3.52
2018-12-18T17:18:25.214Z,3.50
2018-12-18T17:20:52.779Z,3.38
2018-12-18T17:23:20.521Z,3.44
2018-12-18T17:25:48.060Z,3.45
2018-12-18T17:28:15.699Z,3.34
2018-12-18T17:30:43.333Z,3.34
2018-12-18T17:33:10.897Z,3.30
2018-12-18T17:35:39.675Z,3.27
2018-12-18T17:38:07.429Z,3.25
2018-12-18T17:40:35.275Z,3.22
2018-12-18T17:43:02.870Z,3.16
2018-12-18T17:45:30.555Z,3.12
2018-12-18T17:47:58.161Z,3.10
2018-12-18T17:50:26.053Z,3.06
2018-12-18T17:52:53.729Z,3.05
2018-12-18T17:55:21.376Z,2.93
2018-12-18T17:57:49.146Z,2.94
2018-12-18T18:00:16.706Z,2.91
2018-12-18T18:02:44.260Z,2.91
2018-12-18T18:05:11.790Z,2.90
2018-12-18T18:07:42.962Z,2.91
2018-12-18T18:10:09.651Z,2.85
2018-12-18T18:12:37.446Z,2.85
2018-12-18T18:15:05.468Z,2.88
2018-12-18T18:17:33.131Z,2.90
2018-12-18T18:20:01.314Z,2.92
2018-12-18T18:22:28.911Z,2.96
2018-12-18T18:24:56.595Z,2.96
2018-12-18T18:27:24.207Z,2.96
2018-12-18T18:29:51.962Z,2.96
2018-12-18T18:32:19.700Z,2.95
2018-12-18T18:34:47.265Z,2.95
2018-12-18T18:37:15.167Z,2.87
2018-12-18T18:39:42.747Z,2.87
2018-12-18T18:42:10.439Z,2.87
2018-12-18T18:44:38.139Z,2.82
2018-12-18T18:47:05.656Z,2.81
2018-12-18T18:49:33.389Z,2.78
2018-12-18T18:52:01.072Z,2.81
2018-12-18T18:54:28.641Z,2.75
2018-12-18T18:56:56.153Z,2.74
2018-12-18T18:59:23.781Z,2.78
2018-12-18T19:01:51.520Z,2.79
2018-12-18T19:04:19.172Z,2.74
2018-12-18T19:06:46.926Z,2.73
2018-12-18T19:09:14.609Z,2.71
2018-12-18T19:11:42.221Z,2.70
2018-12-18T19:14:10.089Z,2.68
2018-12-18T19:16:38.058Z,2.69
2018-12-18T19:19:05.682Z,2.65
2018-12-18T19:21:33.406Z,2.66
2018-12-18T19:24:00.995Z,2.60
2018-12-18T19:26:34.982Z,2.58
2018-12-18T19:29:02.558Z,2.56
2018-12-18T19:31:30.238Z,2.49
2018-12-18T19:33:57.884Z,2.47
2018-12-18T19:36:25.543Z,2.47
2018-12-18T19:38:53.165Z,2.39
2018-12-18T19:41:21.038Z,2.43
2018-12-18T19:43:48.590Z,2.42
2018-12-18T19:46:16.135Z,2.33
2018-12-18T19:48:44.109Z,2.33
2018-12-18T19:51:11.685Z,2.33
2018-12-18T19:53:39.225Z,2.30
2018-12-18T19:56:06.868Z,2.27
2018-12-18T19:58:34.965Z,2.22
2018-12-18T20:01:02.579Z,2.19
2018-12-18T20:03:30.361Z,2.19
2018-12-18T20:05:57.883Z,2.18
2018-12-18T20:08:25.555Z,2.16
2018-12-18T20:10:53.562Z,2.18
2018-12-18T20:13:21.445Z,2.17
2018-12-18T20:15:49.006Z,2.19
2018-12-18T20:18:17.579Z,2.16
2018-12-18T20:20:45.203Z,2.15
2018-12-18T20:23:12.874Z,2.13
2018-12-18T20:25:40.418Z,2.12
2018-12-18T20:28:07.956Z,2.12
2018-12-18T20:30:35.617Z,2.09
2018-12-18T20:33:03.307Z,2.07
2018-12-18T20:35:31.638Z,2.07
2018-12-18T20:37:59.369Z,2.02
2018-12-18T20:40:26.952Z,2.03
2018-12-18T20:42:54.658Z,2.04
2018-12-18T20:45:22.441Z,2.05
2018-12-18T20:47:50.006Z,2.04
2018-12-18T20:50:17.569Z,2.03
2018-12-18T20:52:45.116Z,2.06
2018-12-18T20:55:12.611Z,2.06
2018-12-18T20:57:40.164Z,2.04
2018-12-18T21:00:09.078Z,2.04
2018-12-18T21:02:36.665Z,2.04
2018-12-18T21:05:04.553Z,2.02
2018-12-18T21:07:32.184Z,2.00
2018-12-18T21:09:59.805Z,2.01
2018-12-18T21:12:27.437Z,2.00
2018-12-18T21:15:00.734Z,2.05
2018-12-18T21:17:24.608Z,2.00
2018-12-18T21:19:52.257Z,2.00
2018-12-18T21:22:19.925Z,2.02
2018-12-18T21:24:47.468Z,1.99
2018-12-18T21:27:15.024Z,1.98
2018-12-18T21:29:42.705Z,1.99
2018-12-18T21:32:10.373Z,2.00
2018-12-18T21:34:38.049Z,2.01
2018-12-18T21:37:05.709Z,1.99
2018-12-18T21:39:33.446Z,1.96
2018-12-18T21:42:01.052Z,1.94
2018-12-18T21:44:28.710Z,2.00
2018-12-18T21:46:56.214Z,1.95
2018-12-18T21:49:24.207Z,2.00
2018-12-18T21:51:51.877Z,1.99
2018-12-18T21:54:19.472Z,1.96
2018-12-18T21:56:47.152Z,1.96
2018-12-18T21:59:14.849Z,1.95
2018-12-18T22:01:42.414Z,1.94
2018-12-18T22:04:10.050Z,1.95
2018-12-18T22:06:37.771Z,1.90
2018-12-18T22:09:06.473Z,1.91
2018-12-18T22:11:34.088Z,1.90
2018-12-18T22:14:01.869Z,1.90
2018-12-18T22:16:29.544Z,1.93
2018-12-18T22:18:57.054Z,1.92
2018-12-18T22:21:25.305Z,1.87
2018-12-18T22:23:54.222Z,1.89
2018-12-18T22:26:22.103Z,1.88
2018-12-18T22:28:50.441Z,1.86
2018-12-18T22:31:18.182Z,1.86
2018-12-18T22:33:45.733Z,1.83
2018-12-18T22:36:42.991Z,1.86
2018-12-18T22:39:11.255Z,1.82
2018-12-18T22:41:38.864Z,1.81
2018-12-18T22:44:06.997Z,1.84
2018-12-18T22:46:34.772Z,1.82
2018-12-18T22:49:02.404Z,1.75
2018-12-18T22:51:30.198Z,1.79
2018-12-18T22:53:59.334Z,1.75
2018-12-18T22:56:30.713Z,1.76
2018-12-18T22:59:18.395Z,1.73
2018-12-18T23:02:07.080Z,1.78
2018-12-18T23:04:36.904Z,1.70
2018-12-18T23:07:04.651Z,1.70
2018-12-18T23:09:33.779Z,1.70
2018-12-18T23:12:01.315Z,1.66
2018-12-18T23:14:28.889Z,1.67
2018-12-18T23:16:56.521Z,1.71
2018-12-18T23:19:24.139Z,1.73
2018-12-18T23:21:51.679Z,1.68
2018-12-18T23:24:19.373Z,1.64
2018-12-18T23:26:47.004Z,1.65
2018-12-18T23:29:14.656Z,1.66
2018-12-18T23:31:42.207Z,1.63
2018-12-18T23:34:09.865Z,1.65
2018-12-18T23:36:37.442Z,1.63
2018-12-18T23:39:06.657Z,1.62
2018-12-18T23:41:34.313Z,1.64
2018-12-18T23:44:02.085Z,1.60
2018-12-18T23:46:29.722Z,1.61
2018-12-18T23:48:57.294Z,1.59
2018-12-18T23:51:24.848Z,1.61
2018-12-18T23:53:52.505Z,1.54
2018-12-18T23:56:21.711Z,1.53
2018-12-18T23:58:49.228Z,1.53
